Time;durP1;ratioP1;P1;durP2;ratioP2;P2;SDS_P1;SDS_P2;PMS_P1;PMS_P2;Temp;Humidity;BMP_temperature;BMP_pressure;BME280_temperature;BME280_humidity;BME280_pressure;Samples;Min_cycle;Max_cycle;Signal;HPM_P1;HPM_P2
2023/11/27 00:00:35;;;;;;;6.15;4.18;;;;;;;;;;5114990;28;20030;-68
2023/11/27 00:03:20;;;;;;;7.53;4.50;;;;;;;;;;5099454;28;20111;-68
2023/11/27 00:06:06;;;;;;;7.13;4.35;;;;;;;;;;5113780;28;20114;-67
2023/11/27 00:08:52;;;;;;;6.78;4.03;;;;;;;;;;5114673;28;20340;-67
2023/11/27 00:11:38;;;;;;;7.15;3.88;;;;;;;;;;5113525;28;20038;-67
2023/11/27 00:14:24;;;;;;;4.75;3.65;;;;;;;;;;5114841;28;20026;-68
2023/11/27 00:17:10;;;;;;;5.53;3.90;;;;;;;;;;5112892;28;20100;-67
2023/11/27 00:19:55;;;;;;;5.70;4.00;;;;;;;;;;5113124;28;20416;-68
2023/11/27 00:22:41;;;;;;;6.03;4.07;;;;;;;;;;5099720;28;20376;-67
2023/11/27 00:25:26;;;;;;;7.55;4.40;;;;;;;;;;5113343;28;20082;-67
2023/11/27 00:28:12;;;;;;;6.38;4.40;;;;;;;;;;5116517;28;20173;-68
2023/11/27 00:30:58;;;;;;;5.68;4.38;;;;;;;;;;5117409;28;20012;-68
2023/11/27 00:33:45;;;;;;;6.32;4.43;;;;;;;;;;5118547;28;20016;-67
2023/11/27 00:36:30;;;;;;;7.18;4.90;;;;;;;;;;5117110;28;20447;-68
2023/11/27 00:39:16;;;;;;;7.03;4.45;;;;;;;;;;5117422;28;20252;-68
2023/11/27 00:42:01;;;;;;;6.90;4.82;;;;;;;;;;5116429;28;20103;-67
2023/11/27 00:44:47;;;;;;;8.60;5.60;;;;;;;;;;5118407;28;20031;-68
2023/11/27 00:47:35;;;;;;;8.18;5.15;;;;;;;;;;5117065;28;20028;-68
2023/11/27 00:50:21;;;;;;;8.63;5.57;;;;;;;;;;5118198;28;20031;-69
2023/11/27 00:53:06;;;;;;;8.98;5.75;;;;;;;;;;5116330;28;20485;-68
2023/11/27 00:55:52;;;;;;;8.32;5.93;;;;;;;;;;5117386;28;20028;-68
2023/11/27 00:58:37;;;;;;;8.45;5.82;;;;;;;;;;5117037;28;20023;-68
2023/11/27 01:01:25;;;;;;;10.30;6.07;;;;;;;;;;5116711;28;20038;-68
2023/11/27 01:04:10;;;;;;;7.85;5.68;;;;;;;;;;5117862;28;20437;-68
2023/11/27 01:06:56;;;;;;;9.68;6.55;;;;;;;;;;5116311;28;20371;-68
2023/11/27 01:09:42;;;;;;;10.40;6.40;;;;;;;;;;5117324;28;20031;-68
2023/11/27 01:12:28;;;;;;;12.02;6.30;;;;;;;;;;5116446;28;20564;-68
2023/11/27 01:15:13;;;;;;;11.00;6.40;;;;;;;;;;5117115;28;20023;-68
2023/11/27 01:17:59;;;;;;;10.85;6.55;;;;;;;;;;5116517;28;20103;-68
2023/11/27 01:20:45;;;;;;;8.48;6.05;;;;;;;;;;5117048;28;20019;-68
2023/11/27 01:23:31;;;;;;;8.70;5.53;;;;;;;;;;5101659;28;20019;-68
2023/11/27 01:26:17;;;;;;;8.95;5.60;;;;;;;;;;5101897;28;20341;-67
2023/11/27 01:29:02;;;;;;;8.18;5.72;;;;;;;;;;5116808;28;20026;-67
2023/11/27 01:31:51;;;;;;;10.65;6.45;;;;;;;;;;5101466;28;20079;-68
2023/11/27 01:34:36;;;;;;;10.07;6.05;;;;;;;;;;5116036;28;20422;-68
2023/11/27 01:37:22;;;;;;;8.55;5.57;;;;;;;;;;5116821;28;20512;-68
2023/11/27 01:40:08;;;;;;;8.10;5.28;;;;;;;;;;5113877;28;20030;-67
2023/11/27 01:42:54;;;;;;;7.85;5.45;;;;;;;;;;5115882;28;20034;-67
2023/11/27 01:45:40;;;;;;;7.80;5.22;;;;;;;;;;5116375;28;20030;-68
2023/11/27 01:48:25;;;;;;;9.40;5.45;;;;;;;;;;5101386;28;20411;-68
2023/11/27 01:51:11;;;;;;;9.00;5.18;;;;;;;;;;5126624;27;20050;-68
2023/11/27 01:53:58;;;;;;;7.50;5.35;;;;;;;;;;5136166;27;20027;-67
2023/11/27 01:56:46;;;;;;;6.60;4.65;;;;;;;;;;5136301;27;20027;-68
2023/11/27 01:59:33;;;;;;;7.78;5.00;;;;;;;;;;5121574;27;20034;-68
2023/11/27 02:02:18;;;;;;;7.82;5.28;;;;;;;;;;5136895;27;20031;-68
2023/11/27 02:05:04;;;;;;;7.13;4.68;;;;;;;;;;5135799;27;20427;-69
2023/11/27 02:07:50;;;;;;;7.93;4.95;;;;;;;;;;5135256;27;20072;-67
2023/11/27 02:10:35;;;;;;;6.10;4.40;;;;;;;;;;5136711;27;20018;-67
2023/11/27 02:13:24;;;;;;;7.13;4.70;;;;;;;;;;5136096;27;20339;-67
2023/11/27 02:16:10;;;;;;;6.68;4.63;;;;;;;;;;5135431;27;20023;-67
2023/11/27 02:18:55;;;;;;;7.63;4.95;;;;;;;;;;5135299;27;20027;-68
2023/11/27 02:21:41;;;;;;;7.10;4.38;;;;;;;;;;5135207;27;20034;-68
2023/11/27 02:24:27;;;;;;;6.97;4.35;;;;;;;;;;5134854;27;20103;-67
2023/11/27 02:27:13;;;;;;;7.00;4.53;;;;;;;;;;5136301;27;20019;-68
2023/11/27 02:29:58;;;;;;;8.77;5.03;;;;;;;;;;5135546;27;20011;-68
2023/11/27 02:32:45;;;;;;;9.07;5.13;;;;;;;;;;5136121;27;20031;-68
2023/11/27 02:35:31;;;;;;;9.35;5.03;;;;;;;;;;5135240;27;20038;-68
2023/11/27 02:38:17;;;;;;;6.40;4.50;;;;;;;;;;5135283;27;20027;-68
2023/11/27 02:41:03;;;;;;;8.43;5.20;;;;;;;;;;5135540;27;20059;-68
2023/11/27 02:43:48;;;;;;;7.57;5.15;;;;;;;;;;5135130;27;20328;-68
2023/11/27 02:46:35;;;;;;;9.68;5.00;;;;;;;;;;5134839;27;20023;-68
2023/11/27 02:49:21;;;;;;;8.63;5.32;;;;;;;;;;5135997;27;20019;-69
2023/11/27 02:52:07;;;;;;;8.52;4.88;;;;;;;;;;5135663;27;20047;-68
2023/11/27 02:54:53;;;;;;;8.52;4.60;;;;;;;;;;5135432;27;20351;-67
2023/11/27 02:57:39;;;;;;;7.55;5.22;;;;;;;;;;5119830;27;20055;-68
2023/11/27 03:00:25;;;;;;;7.20;5.00;;;;;;;;;;5134929;27;20027;-67
2023/11/27 03:03:11;;;;;;;9.10;5.00;;;;;;;;;;5119959;27;20087;-67
2023/11/27 03:05:56;;;;;;;7.70;4.65;;;;;;;;;;5119913;27;20034;-67
2023/11/27 03:08:42;;;;;;;8.30;4.80;;;;;;;;;;5134316;27;20465;-68
2023/11/27 03:11:28;;;;;;;8.10;5.20;;;;;;;;;;5134741;27;20023;-68
2023/11/27 03:14:13;;;;;;;6.10;4.43;;;;;;;;;;5135220;27;20016;-68
2023/11/27 03:16:59;;;;;;;6.72;4.85;;;;;;;;;;5119971;27;20031;-67
2023/11/27 03:19:44;;;;;;;7.63;5.00;;;;;;;;;;5135298;27;20097;-67
2023/11/27 03:22:31;;;;;;;7.50;4.57;;;;;;;;;;5135335;27;20023;-68
2023/11/27 03:25:16;;;;;;;8.65;4.70;;;;;;;;;;5120003;27;20446;-66
2023/11/27 03:28:02;;;;;;;7.50;4.93;;;;;;;;;;5134822;27;20023;-67
2023/11/27 03:30:47;;;;;;;7.75;4.68;;;;;;;;;;5135174;27;20486;-67
2023/11/27 03:33:33;;;;;;;8.55;4.80;;;;;;;;;;5134072;27;20032;-67
2023/11/27 03:36:18;;;;;;;6.45;4.55;;;;;;;;;;5134904;27;20447;-67
2023/11/27 03:39:05;;;;;;;6.88;4.75;;;;;;;;;;5134695;27;20061;-67
2023/11/27 03:41:51;;;;;;;6.38;4.70;;;;;;;;;;5134794;27;20308;-67
2023/11/27 03:44:37;;;;;;;7.45;4.93;;;;;;;;;;5134907;27;20450;-67
2023/11/27 03:47:22;;;;;;;5.88;4.18;;;;;;;;;;5134398;27;20102;-68
2023/11/27 03:50:10;;;;;;;7.68;4.93;;;;;;;;;;5134735;27;20076;-68
2023/11/27 03:52:56;;;;;;;7.28;4.85;;;;;;;;;;5133637;27;20050;-67
2023/11/27 03:55:41;;;;;;;7.75;5.22;;;;;;;;;;5134911;27;20408;-68
2023/11/27 03:58:27;;;;;;;7.18;4.97;;;;;;;;;;5134842;27;20111;-67
2023/11/27 04:01:13;;;;;;;6.22;4.70;;;;;;;;;;5134587;27;20332;-67
2023/11/27 04:04:02;;;;;;;6.90;4.95;;;;;;;;;;5135239;27;20030;-67
2023/11/27 04:06:47;;;;;;;8.07;5.20;;;;;;;;;;5134323;27;20018;-67
2023/11/27 04:09:33;;;;;;;6.68;4.72;;;;;;;;;;5134169;28;20439;-68
2023/11/27 04:12:19;;;;;;;8.30;4.90;;;;;;;;;;5135107;28;20019;-67
2023/11/27 04:15:04;;;;;;;7.00;4.45;;;;;;;;;;5134154;28;20026;-67
2023/11/27 04:17:50;;;;;;;7.85;4.97;;;;;;;;;;5119175;28;20026;-67
2023/11/27 04:20:35;;;;;;;8.65;4.95;;;;;;;;;;5134865;28;20146;-66
2023/11/27 04:23:21;;;;;;;8.70;5.25;;;;;;;;;;5134222;28;20019;-66
2023/11/27 04:26:07;;;;;;;8.52;5.50;;;;;;;;;;5134544;28;20015;-66
2023/11/27 04:28:52;;;;;;;8.48;5.07;;;;;;;;;;5134414;28;20043;-66
2023/11/27 04:31:38;;;;;;;7.60;5.00;;;;;;;;;;5133483;28;20405;-67
2023/11/27 04:34:23;;;;;;;8.15;5.20;;;;;;;;;;5134583;28;20516;-68
2023/11/27 04:37:10;;;;;;;7.13;5.05;;;;;;;;;;5133044;28;20034;-67
2023/11/27 04:39:56;;;;;;;7.75;5.18;;;;;;;;;;5133380;28;20363;-68
2023/11/27 04:42:42;;;;;;;8.43;4.85;;;;;;;;;;5133205;28;20412;-68
2023/11/27 04:45:27;;;;;;;7.85;5.38;;;;;;;;;;5133493;28;20026;-67
2023/11/27 04:48:13;;;;;;;7.53;4.78;;;;;;;;;;5134274;28;20054;-67
2023/11/27 04:50:59;;;;;;;7.80;5.38;;;;;;;;;;5118480;28;20048;-68
2023/11/27 04:53:44;;;;;;;8.10;5.07;;;;;;;;;;5104695;28;20019;-69
2023/11/27 04:56:30;;;;;;;8.52;5.60;;;;;;;;;;5133777;28;20031;-67
2023/11/27 04:59:16;;;;;;;8.05;5.10;;;;;;;;;;5134503;28;20034;-67
2023/11/27 05:02:01;;;;;;;9.77;5.35;;;;;;;;;;5134377;28;20042;-67
2023/11/27 05:04:47;;;;;;;9.30;5.57;;;;;;;;;;5134014;28;20079;-67
2023/11/27 05:07:32;;;;;;;8.15;5.32;;;;;;;;;;5134227;28;20033;-67
2023/11/27 05:10:18;;;;;;;7.93;5.20;;;;;;;;;;5134042;28;20023;-67
2023/11/27 05:13:04;;;;;;;13.40;7.65;;;;;;;;;;5133853;27;20456;-68
2023/11/27 05:15:49;;;;;;;14.15;7.63;;;;;;;;;;5138107;27;20042;-67
2023/11/27 05:18:35;;;;;;;13.93;7.65;;;;;;;;;;5137134;27;20026;-68
2023/11/27 05:21:21;;;;;;;13.52;7.22;;;;;;;;;;5137207;27;20096;-68
2023/11/27 05:24:07;;;;;;;11.10;7.10;;;;;;;;;;5137421;27;20030;-68
2023/11/27 05:26:53;;;;;;;12.88;7.20;;;;;;;;;;5137631;27;20054;-68
2023/11/27 05:29:39;;;;;;;13.93;7.53;;;;;;;;;;5137188;27;20084;-67
2023/11/27 05:32:25;;;;;;;14.02;7.80;;;;;;;;;;5137612;27;20022;-67
2023/11/27 05:35:10;;;;;;;11.88;7.60;;;;;;;;;;5137440;27;20027;-67
2023/11/27 05:37:56;;;;;;;13.85;7.78;;;;;;;;;;5137393;27;20095;-67
2023/11/27 05:40:42;;;;;;;13.48;7.65;;;;;;;;;;5136923;27;20067;-69
2023/11/27 05:43:28;;;;;;;13.45;7.75;;;;;;;;;;5136399;27;20113;-68
2023/11/27 05:46:13;;;;;;;12.88;8.15;;;;;;;;;;5136906;27;20039;-67
2023/11/27 05:48:59;;;;;;;11.63;7.82;;;;;;;;;;5136867;27;20097;-68
2023/11/27 05:51:46;;;;;;;14.30;8.48;;;;;;;;;;5121580;27;20043;-68
2023/11/27 05:54:31;;;;;;;14.30;8.45;;;;;;;;;;5136422;27;20071;-68
2023/11/27 05:57:17;;;;;;;12.88;7.82;;;;;;;;;;5135749;27;20043;-68
2023/11/27 06:00:03;;;;;;;11.48;7.70;;;;;;;;;;5121022;27;20027;-68
2023/11/27 06:02:48;;;;;;;12.65;8.40;;;;;;;;;;5121479;27;20034;-67
2023/11/27 06:05:34;;;;;;;13.75;8.60;;;;;;;;;;5136668;27;20011;-68
2023/11/27 06:08:20;;;;;;;12.73;7.97;;;;;;;;;;5135801;27;20500;-68
2023/11/27 06:11:06;;;;;;;12.43;7.80;;;;;;;;;;5136236;27;20023;-68
2023/11/27 06:13:52;;;;;;;12.32;7.70;;;;;;;;;;5136457;27;20074;-68
2023/11/27 06:16:37;;;;;;;11.40;7.10;;;;;;;;;;5135593;27;20401;-68
2023/11/27 06:19:24;;;;;;;13.30;7.32;;;;;;;;;;5136380;27;20027;-68
2023/11/27 06:22:09;;;;;;;12.70;8.07;;;;;;;;;;5136168;27;20345;-68
2023/11/27 06:24:55;;;;;;;12.32;7.65;;;;;;;;;;5135769;27;20019;-69
2023/11/27 06:27:41;;;;;;;12.38;7.28;;;;;;;;;;5135090;27;20011;-68
2023/11/27 06:30:26;;;;;;;12.55;7.43;;;;;;;;;;5135942;27;20106;-68
2023/11/27 06:33:12;;;;;;;10.38;7.18;;;;;;;;;;5135860;27;20015;-69
2023/11/27 06:35:57;;;;;;;12.20;7.55;;;;;;;;;;5135920;27;20023;-69
2023/11/27 06:38:44;;;;;;;10.40;6.47;;;;;;;;;;5120312;27;20076;-68
2023/11/27 06:41:30;;;;;;;11.57;7.05;;;;;;;;;;5136032;27;20023;-70
2023/11/27 06:44:17;;;;;;;13.15;7.88;;;;;;;;;;5135824;27;20030;-69
2023/11/27 06:47:03;;;;;;;12.07;6.85;;;;;;;;;;5135159;27;20110;-69
2023/11/27 06:49:49;;;;;;;11.48;7.38;;;;;;;;;;5135388;27;20019;-69
2023/11/27 06:52:34;;;;;;;12.50;7.70;;;;;;;;;;5120330;27;20035;-69
2023/11/27 06:55:20;;;;;;;9.98;6.07;;;;;;;;;;5136124;27;20016;-68
2023/11/27 06:58:05;;;;;;;9.40;5.50;;;;;;;;;;5136331;27;20030;-73
2023/11/27 07:00:51;;;;;;;8.15;5.47;;;;;;;;;;5135916;27;20103;-72
2023/11/27 07:03:36;;;;;;;8.80;5.32;;;;;;;;;;5135920;27;20015;-68
2023/11/27 07:06:22;;;;;;;9.43;5.40;;;;;;;;;;5135923;27;20052;-71
2023/11/27 07:09:10;;;;;;;9.10;5.60;;;;;;;;;;5120481;27;20057;-72
2023/11/27 07:11:56;;;;;;;10.40;5.65;;;;;;;;;;5134860;27;20461;-72
2023/11/27 07:14:42;;;;;;;11.82;5.90;;;;;;;;;;5120843;27;20458;-73
2023/11/27 07:17:27;;;;;;;11.10;5.88;;;;;;;;;;5134627;27;20027;-71
2023/11/27 07:20:17;;;;;;;10.50;5.80;;;;;;;;;;5135043;27;20019;-72
2023/11/27 07:23:03;;;;;;;9.10;5.93;;;;;;;;;;5135021;27;20026;-72
2023/11/27 07:25:49;;;;;;;9.77;6.05;;;;;;;;;;5135437;27;20019;-72
2023/11/27 07:28:36;;;;;;;8.52;5.05;;;;;;;;;;5135296;27;20043;-73
2023/11/27 07:31:27;;;;;;;8.35;5.30;;;;;;;;;;5134023;27;20047;-77
2023/11/27 07:34:13;;;;;;;9.18;5.55;;;;;;;;;;5133611;27;20030;-71
2023/11/27 07:36:59;;;;;;;7.05;4.70;;;;;;;;;;5134151;27;20044;-74
2023/11/27 07:39:44;;;;;;;7.65;5.20;;;;;;;;;;5120925;27;20115;-70
2023/11/27 07:42:30;;;;;;;6.93;5.05;;;;;;;;;;5135120;27;20478;-73
2023/11/27 07:45:16;;;;;;;9.52;5.00;;;;;;;;;;5134868;27;20416;-71
2023/11/27 07:48:01;;;;;;;9.13;4.93;;;;;;;;;;5135124;27;20102;-72
2023/11/27 07:50:47;;;;;;;10.50;5.70;;;;;;;;;;5134791;27;20078;-72
2023/11/27 07:53:33;;;;;;;7.82;4.85;;;;;;;;;;5133982;27;20019;-73
2023/11/27 07:56:28;;;;;;;9.30;5.15;;;;;;;;;;5134090;27;20023;-71
2023/11/27 07:59:14;;;;;;;6.60;4.97;;;;;;;;;;5119495;28;20047;-71
2023/11/27 08:02:00;;;;;;;7.30;4.75;;;;;;;;;;5134894;27;20023;-72
2023/11/27 08:04:45;;;;;;;6.70;4.90;;;;;;;;;;5134314;27;20027;-74
2023/11/27 08:07:32;;;;;;;6.55;4.68;;;;;;;;;;5135476;27;20030;-72
2023/11/27 08:10:18;;;;;;;7.18;4.72;;;;;;;;;;5133771;28;20038;-71
2023/11/27 08:13:04;;;;;;;6.55;4.57;;;;;;;;;;5118844;28;20110;-71
2023/11/27 08:15:50;;;;;;;7.03;4.78;;;;;;;;;;5120440;28;20034;-70
2023/11/27 08:18:38;;;;;;;5.65;4.45;;;;;;;;;;5133676;28;20019;-72
2023/11/27 08:21:24;;;;;;;7.95;4.47;;;;;;;;;;5134500;28;20118;-74
2023/11/27 08:24:13;;;;;;;6.68;4.30;;;;;;;;;;5134327;28;20110;-70
2023/11/27 08:27:01;;;;;;;7.38;3.88;;;;;;;;;;5133361;28;20110;-70
2023/11/27 08:29:47;;;;;;;5.78;3.95;;;;;;;;;;5134233;28;20030;-70
2023/11/27 08:32:33;;;;;;;6.80;4.32;;;;;;;;;;5134018;28;20363;-70
2023/11/27 08:35:18;;;;;;;10.13;4.97;;;;;;;;;;5133676;28;20034;-69
2023/11/27 08:38:04;;;;;;;6.07;4.05;;;;;;;;;;5132185;28;20102;-71
2023/11/27 08:40:50;;;;;;;7.45;4.90;;;;;;;;;;5118737;28;20084;-69
2023/11/27 08:43:35;;;;;;;11.50;5.40;;;;;;;;;;5118575;28;20372;-69
2023/11/27 08:46:21;;;;;;;6.97;5.35;;;;;;;;;;5133902;28;20015;-69
2023/11/27 08:49:07;;;;;;;7.75;5.13;;;;;;;;;;5136288;27;20359;-68
2023/11/27 08:51:53;;;;;;;6.32;4.80;;;;;;;;;;5124289;27;20071;-71
2023/11/27 08:54:38;;;;;;;8.48;5.75;;;;;;;;;;5138203;27;20038;-70
2023/11/27 08:57:24;;;;;;;7.55;4.90;;;;;;;;;;5122947;27;20023;-70
2023/11/27 09:00:12;;;;;;;7.78;5.25;;;;;;;;;;5137859;27;20377;-69
2023/11/27 09:02:58;;;;;;;9.52;5.28;;;;;;;;;;5136745;27;20029;-70
2023/11/27 09:05:44;;;;;;;9.63;6.10;;;;;;;;;;5136146;27;20033;-69
2023/11/27 09:08:30;;;;;;;8.98;6.00;;;;;;;;;;5136933;27;20015;-69
2023/11/27 09:11:15;;;;;;;9.77;6.15;;;;;;;;;;5122264;27;20106;-70
2023/11/27 09:14:01;;;;;;;7.57;5.60;;;;;;;;;;5122784;27;20400;-69
2023/11/27 09:16:46;;;;;;;9.43;5.50;;;;;;;;;;5137503;27;20364;-69
2023/11/27 09:19:32;;;;;;;8.35;5.65;;;;;;;;;;5136999;27;20024;-69
2023/11/27 09:22:21;;;;;;;10.40;5.97;;;;;;;;;;5123219;27;20020;-69
2023/11/27 09:25:12;;;;;;;8.50;5.68;;;;;;;;;;5136667;27;20019;-70
2023/11/27 09:28:01;;;;;;;7.32;5.30;;;;;;;;;;5137212;27;20015;-72
2023/11/27 09:30:47;;;;;;;10.00;5.93;;;;;;;;;;5121419;27;20121;-71
2023/11/27 09:33:34;;;;;;;8.93;5.55;;;;;;;;;;5137244;27;20040;-70
2023/11/27 09:36:20;;;;;;;7.95;5.75;;;;;;;;;;5137361;27;20034;-71
2023/11/27 09:39:06;;;;;;;9.57;6.00;;;;;;;;;;5122026;27;20030;-72
2023/11/27 09:41:56;;;;;;;8.43;5.95;;;;;;;;;;5136229;27;20019;-71
2023/11/27 09:44:42;;;;;;;9.05;6.10;;;;;;;;;;5135937;27;20023;-71
2023/11/27 09:47:28;;;;;;;9.27;5.93;;;;;;;;;;5137317;27;20451;-70
2023/11/27 09:50:15;;;;;;;9.05;5.90;;;;;;;;;;5136371;27;20027;-69
2023/11/27 09:53:05;;;;;;;8.48;5.78;;;;;;;;;;5135980;27;20070;-70
2023/11/27 09:55:53;;;;;;;9.68;6.10;;;;;;;;;;5136144;27;20035;-70
2023/11/27 09:58:42;;;;;;;10.32;6.35;;;;;;;;;;5136799;27;20019;-69
2023/11/27 10:01:29;;;;;;;9.43;6.32;;;;;;;;;;5120596;27;20016;-68
2023/11/27 10:04:15;;;;;;;9.40;6.03;;;;;;;;;;5123196;27;20127;-68
2023/11/27 10:07:01;;;;;;;7.85;5.35;;;;;;;;;;5121000;27;20019;-69
2023/11/27 10:09:46;;;;;;;7.85;5.53;;;;;;;;;;5135120;27;20030;-70
2023/11/27 10:12:35;;;;;;;6.97;5.32;;;;;;;;;;5126710;27;20016;-69
2023/11/27 10:15:20;;;;;;;7.55;5.60;;;;;;;;;;5115775;28;20092;-69
2023/11/27 10:18:08;;;;;;;9.23;5.32;;;;;;;;;;5115662;28;20032;-68
2023/11/27 10:20:54;;;;;;;6.80;5.18;;;;;;;;;;5125974;27;20027;-68
2023/11/27 10:23:40;;;;;;;7.38;5.20;;;;;;;;;;5135771;27;20027;-68
2023/11/27 10:26:26;;;;;;;7.55;5.45;;;;;;;;;;5135834;27;20102;-70
2023/11/27 10:29:12;;;;;;;7.70;5.25;;;;;;;;;;5136345;27;20438;-68
2023/11/27 10:32:00;;;;;;;9.63;5.65;;;;;;;;;;5136012;27;20089;-68
2023/11/27 10:34:49;;;;;;;8.40;4.85;;;;;;;;;;5136069;27;20106;-73
2023/11/27 10:37:36;;;;;;;10.70;5.18;;;;;;;;;;5136029;27;20053;-72
2023/11/27 10:40:26;;;;;;;7.55;5.25;;;;;;;;;;5135819;27;20032;-68
2023/11/27 10:43:14;;;;;;;9.38;4.93;;;;;;;;;;5136435;27;20019;-70
2023/11/27 10:46:03;;;;;;;6.68;4.65;;;;;;;;;;5120583;27;20019;-69
2023/11/27 10:48:48;;;;;;;5.78;4.47;;;;;;;;;;5135955;27;20019;-70
2023/11/27 10:51:34;;;;;;;7.30;5.15;;;;;;;;;;5135189;27;20085;-70
2023/11/27 10:54:21;;;;;;;5.80;4.20;;;;;;;;;;5136190;27;20019;-74
2023/11/27 10:57:07;;;;;;;5.90;4.35;;;;;;;;;;5120271;27;20034;-70
2023/11/27 10:59:53;;;;;;;6.28;3.97;;;;;;;;;;5136557;27;20019;-70
2023/11/27 11:02:39;;;;;;;4.80;3.72;;;;;;;;;;5134968;27;20027;-69
2023/11/27 11:05:29;;;;;;;5.55;4.00;;;;;;;;;;5135452;27;20068;-69
2023/11/27 11:08:15;;;;;;;4.75;3.58;;;;;;;;;;5135225;27;20015;-68
2023/11/27 11:11:02;;;;;;;7.00;4.25;;;;;;;;;;5119523;27;20058;-68
2023/11/27 11:13:48;;;;;;;4.47;3.55;;;;;;;;;;5135464;27;20077;-70
2023/11/27 11:16:39;;;;;;;5.85;3.78;;;;;;;;;;5134653;27;20058;-70
2023/11/27 11:19:41;;;;;;;5.85;3.78;;;;;;;;;;5135140;27;20034;-67
2023/11/27 11:22:37;;;;;;;6.07;3.67;;;;;;;;;;5134513;27;20023;-69
2023/11/27 11:25:32;;;;;;;4.00;3.45;;;;;;;;;;5134654;27;20023;-68
2023/11/27 11:28:29;;;;;;;4.40;3.40;;;;;;;;;;5135464;27;20483;-68
2023/11/27 11:31:15;;;;;;;7.95;3.78;;;;;;;;;;5134657;27;20031;-68
2023/11/27 11:34:02;;;;;;;3.78;3.30;;;;;;;;;;5134803;27;20015;-68
2023/11/27 11:36:52;;;;;;;5.43;3.60;;;;;;;;;;5134723;27;20372;-68
2023/11/27 11:39:40;;;;;;;6.00;3.40;;;;;;;;;;5119408;27;20023;-67
2023/11/27 11:42:29;;;;;;;4.88;3.30;;;;;;;;;;5134402;27;20367;-67
2023/11/27 11:45:19;;;;;;;6.95;3.65;;;;;;;;;;5134975;27;20516;-68
2023/11/27 11:48:13;;;;;;;4.85;3.70;;;;;;;;;;5119288;27;20042;-68
2023/11/27 11:51:03;;;;;;;5.85;3.60;;;;;;;;;;5134441;27;20467;-68
2023/11/27 11:53:49;;;;;;;4.95;3.22;;;;;;;;;;5132815;27;20023;-69
2023/11/27 11:56:35;;;;;;;4.65;3.53;;;;;;;;;;5133948;27;20023;-68
2023/11/27 11:59:25;;;;;;;7.28;4.32;;;;;;;;;;5133955;27;20499;-71
2023/11/27 12:02:11;;;;;;;5.82;3.40;;;;;;;;;;5119407;27;20027;-70
2023/11/27 12:04:56;;;;;;;4.22;3.22;;;;;;;;;;5133840;27;20023;-71
2023/11/27 12:07:44;;;;;;;4.30;3.33;;;;;;;;;;5134431;27;20012;-74
2023/11/27 12:10:31;;;;;;;5.80;3.60;;;;;;;;;;5119506;28;20015;-73
2023/11/27 12:13:20;;;;;;;6.25;3.72;;;;;;;;;;5119658;28;20335;-72
2023/11/27 12:16:12;;;;;;;5.07;3.50;;;;;;;;;;5134476;28;20095;-70
2023/11/27 12:18:58;;;;;;;4.25;3.00;;;;;;;;;;5133905;28;20015;-70
2023/11/27 12:21:44;;;;;;;5.40;3.22;;;;;;;;;;5125500;28;20019;-70
2023/11/27 12:24:29;;;;;;;4.93;3.40;;;;;;;;;;5117202;28;20088;-71
2023/11/27 12:27:15;;;;;;;5.47;3.35;;;;;;;;;;5118470;28;20034;-72
2023/11/27 12:30:00;;;;;;;4.80;3.10;;;;;;;;;;5118114;28;20016;-71
2023/11/27 12:32:50;;;;;;;3.60;2.80;;;;;;;;;;5103291;28;20035;-71
2023/11/27 12:35:37;;;;;;;4.70;3.30;;;;;;;;;;5117426;28;20023;-72
2023/11/27 12:38:24;;;;;;;3.53;2.80;;;;;;;;;;5118150;28;20016;-72
2023/11/27 12:41:16;;;;;;;3.92;2.95;;;;;;;;;;5117945;28;20079;-72
2023/11/27 12:44:18;;;;;;;5.88;3.92;;;;;;;;;;5118171;28;20034;-72
2023/11/27 12:47:05;;;;;;;5.18;2.70;;;;;;;;;;5118052;28;20012;-73
2023/11/27 12:49:54;;;;;;;7.68;2.70;;;;;;;;;;5117537;28;20027;-72
2023/11/27 12:52:45;;;;;;;6.53;3.00;;;;;;;;;;5102170;28;20383;-73
2023/11/27 12:55:36;;;;;;;4.40;2.70;;;;;;;;;;5117590;28;20110;-72
2023/11/27 12:58:22;;;;;;;3.05;2.33;;;;;;;;;;5118040;28;20414;-72
2023/11/27 13:01:11;;;;;;;3.42;2.40;;;;;;;;;;5117532;28;20106;-72
2023/11/27 13:03:57;;;;;;;3.83;2.08;;;;;;;;;;5103999;28;20444;-71
2023/11/27 13:06:43;;;;;;;2.88;2.22;;;;;;;;;;5104219;28;20020;-72
2023/11/27 13:09:28;;;;;;;2.90;2.28;;;;;;;;;;5103455;28;20016;-72
2023/11/27 13:12:18;;;;;;;4.45;2.40;;;;;;;;;;5102672;28;20492;-71
2023/11/27 13:15:10;;;;;;;3.30;2.15;;;;;;;;;;5120090;27;20069;-73
2023/11/27 13:18:01;;;;;;;5.43;2.63;;;;;;;;;;5121609;27;20043;-72
2023/11/27 13:20:53;;;;;;;6.25;2.75;;;;;;;;;;5122307;27;20080;-72
2023/11/27 13:23:39;;;;;;;2.60;1.98;;;;;;;;;;5121420;27;20105;-73
2023/11/27 13:26:28;;;;;;;3.15;2.30;;;;;;;;;;5123297;27;20390;-73
2023/11/27 13:29:14;;;;;;;4.97;2.88;;;;;;;;;;5135987;27;20015;-73
2023/11/27 13:32:01;;;;;;;4.40;2.33;;;;;;;;;;5136301;27;20091;-73
2023/11/27 13:34:55;;;;;;;3.78;2.50;;;;;;;;;;5115090;28;20023;-73
2023/11/27 13:37:41;;;;;;;3.35;1.90;;;;;;;;;;5116939;28;20102;-74
2023/11/27 13:40:28;;;;;;;2.58;2.00;;;;;;;;;;5116033;28;20023;-72
2023/11/27 13:43:17;;;;;;;3.67;1.98;;;;;;;;;;5117314;28;20024;-74
2023/11/27 13:46:07;;;;;;;2.92;2.08;;;;;;;;;;5117415;28;20023;-72
2023/11/27 13:48:53;;;;;;;2.88;1.83;;;;;;;;;;5116315;28;20402;-73
2023/11/27 13:51:38;;;;;;;2.40;1.58;;;;;;;;;;5100380;28;20468;-74
2023/11/27 13:54:25;;;;;;;2.22;1.63;;;;;;;;;;5100996;28;20092;-74
2023/11/27 13:57:11;;;;;;;2.20;1.80;;;;;;;;;;5116156;28;20020;-70
2023/11/27 13:59:57;;;;;;;4.38;2.20;;;;;;;;;;5115856;28;20452;-71
2023/11/27 14:02:42;;;;;;;2.83;1.83;;;;;;;;;;5116687;28;20439;-74
2023/11/27 14:05:36;;;;;;;4.22;1.98;;;;;;;;;;5115299;28;20019;-72
2023/11/27 14:08:29;;;;;;;3.33;1.80;;;;;;;;;;5115141;28;20080;-73
2023/11/27 14:11:16;;;;;;;3.55;2.00;;;;;;;;;;5135495;27;20015;-73
2023/11/27 14:14:11;;;;;;;2.95;1.70;;;;;;;;;;5135496;27;20023;-72
2023/11/27 14:17:17;;;;;;;4.78;1.90;;;;;;;;;;5135079;27;20351;-73
2023/11/27 14:23:25;;;;;;;1.85;1.55;;;;;;;;;;5135321;27;20025;-72
2023/11/27 14:29:00;;;;;;;2.83;1.90;;;;;;;;;;5136240;27;20019;-73
2023/11/27 14:31:46;;;;;;;4.18;2.10;;;;;;;;;;5135957;27;20051;-74
2023/11/27 14:34:32;;;;;;;4.13;2.70;;;;;;;;;;5121341;27;20028;-75
2023/11/27 14:37:20;;;;;;;3.70;2.42;;;;;;;;;;5139065;27;20048;-74
2023/11/27 14:40:19;;;;;;;3.83;2.17;;;;;;;;;;5136958;27;20034;-74
2023/11/27 14:43:05;;;;;;;5.45;2.70;;;;;;;;;;5135136;27;20103;-73
2023/11/27 14:45:52;;;;;;;3.97;2.42;;;;;;;;;;5136377;27;20015;-74
2023/11/27 14:48:40;;;;;;;4.20;2.00;;;;;;;;;;5120816;27;20114;-74
2023/11/27 14:51:28;;;;;;;4.60;2.17;;;;;;;;;;5135627;27;20053;-74
2023/11/27 14:54:17;;;;;;;3.08;2.05;;;;;;;;;;5136961;27;20063;-77
2023/11/27 14:57:06;;;;;;;4.00;2.00;;;;;;;;;;5135981;27;20023;-76
2023/11/27 14:59:56;;;;;;;2.75;1.98;;;;;;;;;;5137316;27;20047;-75
2023/11/27 15:02:42;;;;;;;5.03;2.40;;;;;;;;;;5136717;27;20015;-73
2023/11/27 15:05:28;;;;;;;3.75;2.50;;;;;;;;;;5135580;27;20591;-73
2023/11/27 15:08:14;;;;;;;4.88;2.83;;;;;;;;;;5135735;27;20472;-73
2023/11/27 15:11:02;;;;;;;4.82;3.38;;;;;;;;;;5134274;27;20058;-72
2023/11/27 15:13:48;;;;;;;5.55;3.35;;;;;;;;;;5122230;27;20019;-71
2023/11/27 15:16:33;;;;;;;4.55;3.08;;;;;;;;;;5134743;27;20079;-73
2023/11/27 15:19:20;;;;;;;5.35;3.53;;;;;;;;;;5135030;27;20065;-72
2023/11/27 15:22:09;;;;;;;5.55;3.40;;;;;;;;;;5135643;27;20023;-72
2023/11/27 15:24:56;;;;;;;3.85;2.95;;;;;;;;;;5135159;27;20037;-72
2023/11/27 15:27:41;;;;;;;7.18;3.10;;;;;;;;;;5136369;27;20466;-73
2023/11/27 15:30:28;;;;;;;5.10;3.28;;;;;;;;;;5133257;27;20110;-73
2023/11/27 15:33:14;;;;;;;5.57;3.47;;;;;;;;;;5135072;27;20475;-73
2023/11/27 15:36:01;;;;;;;5.88;3.30;;;;;;;;;;5120456;27;20027;-70
2023/11/27 15:38:48;;;;;;;4.40;3.00;;;;;;;;;;5134071;27;20030;-71
2023/11/27 15:41:34;;;;;;;6.70;3.67;;;;;;;;;;5120349;27;20101;-71
2023/11/27 15:44:19;;;;;;;6.13;3.90;;;;;;;;;;5120179;27;20019;-71
2023/11/27 15:47:05;;;;;;;8.20;4.47;;;;;;;;;;5119160;27;20102;-70
2023/11/27 15:49:51;;;;;;;10.10;5.00;;;;;;;;;;5119398;27;20020;-69
2023/11/27 15:52:36;;;;;;;11.63;6.05;;;;;;;;;;5125494;27;20119;-68
2023/11/27 15:55:23;;;;;;;13.43;7.47;;;;;;;;;;5113246;28;20023;-69
2023/11/27 15:58:10;;;;;;;12.13;7.57;;;;;;;;;;5113215;28;20031;-69
2023/11/27 16:00:56;;;;;;;11.13;7.25;;;;;;;;;;5113891;28;20034;-68
2023/11/27 16:03:42;;;;;;;14.88;6.63;;;;;;;;;;5113597;28;20092;-68
2023/11/27 16:06:27;;;;;;;14.40;7.55;;;;;;;;;;5100122;28;20026;-68
2023/11/27 16:09:16;;;;;;;12.60;7.47;;;;;;;;;;5118578;28;20027;-71
2023/11/27 16:12:04;;;;;;;13.65;7.30;;;;;;;;;;5119520;28;20054;-72
2023/11/27 16:14:49;;;;;;;11.55;6.50;;;;;;;;;;5134162;28;20015;-69
2023/11/27 16:17:37;;;;;;;14.38;7.03;;;;;;;;;;5134344;28;20163;-69
2023/11/27 16:20:24;;;;;;;13.45;7.25;;;;;;;;;;5119141;28;20024;-68
2023/11/27 16:23:11;;;;;;;14.23;7.40;;;;;;;;;;5119730;28;20039;-68
2023/11/27 16:25:56;;;;;;;13.90;7.28;;;;;;;;;;5133616;28;20026;-69
2023/11/27 16:28:42;;;;;;;11.57;6.65;;;;;;;;;;5133548;28;20103;-71
2023/11/27 16:31:28;;;;;;;12.18;6.85;;;;;;;;;;5118625;28;20451;-70
2023/11/27 16:34:14;;;;;;;17.33;7.63;;;;;;;;;;5132025;28;20030;-68
2023/11/27 16:37:01;;;;;;;13.90;7.90;;;;;;;;;;5133315;28;20151;-69
2023/11/27 16:39:47;;;;;;;13.63;7.22;;;;;;;;;;5133934;28;20023;-69
2023/11/27 16:42:38;;;;;;;15.93;9.30;;;;;;;;;;5134243;28;20023;-68